AirNav   Everest Fuels
 
 309 users online  

66KY Mc Grew Airport
Clarkson, Kentucky, USA

GOING TO CLARKSON?


FAA INFORMATION EFFECTIVE 15 AUGUST 2019

Location

FAA Identifier: 66KY
Lat/Long: 37-30-27.2010N 086-12-19.8990W
37-30.453350N 086-12.331650W
37.5075558,-86.2055275
(estimated)
Elevation: 720 ft. / 219 m (estimated)
Variation: 01W (1985)
From city: 1 mile NE of CLARKSON, KY
Time zone: UTC -5 (UTC -6 during Standard Time)
Zip code: 42726

Airport Operations

Airport use: Private use. Permission required prior to landing
Activation date: 08/1985
Control tower: no
ARTCC: INDIANAPOLIS CENTER
FSS: LOUISVILLE FLIGHT SERVICE STATION
Attendance: UNATNDD
Wind indicator: yes
Segmented circle: no

Airport Communications

WX AWOS-3 at EKX (17 nm NE): 121.025 (270-763-6433)

Nearby radio navigation aids

VOR radial/distance  VOR name  Freq  Var
MYSr176/(23.3)MYSTIC VOR108.2001W
EWOr253/26.3NEW HOPE VOR/DME110.8001E
FTKr206/26.4FORT KNOX VOR/DME109.6001W
BWGr016/36.5BOWLING GREEN VORTAC117.9002E

 
NDB name  Hdg/Dist  Freq  Var  ID
GODMAN205/29.239603WGOI --. --- ..

Airport Services

Runway Information

Runway 10/28

Dimensions: 2400 x 150 ft. / 732 x 46 m
Surface: turf
RUNWAY 10  RUNWAY 28
Traffic pattern: leftleft
Obstructions: 30 ft. trees30 ft. trees

Airport Ownership and Management from official FAA records

Ownership: Privately-owned
Owner: ROBERT MC GREW
RT 3, BOX 186
CLARKSON, KY 42726
Phone 502-242-7378

Airport Operational Statistics

Aircraft based on the field: 6
Single engine airplanes: 4
Ultralights: 2
    

Additional Remarks

FOR CD CTC INDIANAPOLIS ARTCC AT 317-247-2411.

Instrument Procedures

There are no published instrument procedures at 66KY.

Some nearby airports with instrument procedures:

M20 - Leitchfield-Grayson County Airport (7 nm S)
KEKX - Addington Field Airport (17 nm NE)
I93 - Breckinridge County Airport (20 nm NW)
KFTK - Godman Army Airfield (26 nm NE)
KJQD - Ohio County Airport (31 nm W)
 
Loc | Ops | Rwys | IFR | FBO | Links
Com | Nav | Svcs | Stats | Notes
Area around 66KY (Mc Grew Airport)
 
Road maps at: MapQuest Bing Google
 
Aerial photo
No photo
 
Sectional chart

 
Airport distance calculator
Flying to Mc Grew Airport? Find the distance to fly.

From to 66KY

Sunrise and sunset
Times for 26-Aug-2019
 Local
(UTC-5)
 Zulu
(UTC)
Morning civil twilight05:4410:44
Sunrise06:1111:11
Sunset19:2200:22
Evening civil twilight19:4900:49

Current date and time
Zulu (UTC)  26-Aug-2019 09:28:01
Local (UTC-5)  26-Aug-2019 04:28:01
 
METAR
KEKX 
20nm NE 
260915Z AUTO 17006KT 10SM OVC009 21/21 A2995 RMK AO2 T02060206
KFTK 
25nm NE 
260856Z AUTO 16009KT 10SM OVC009 21/21 A2995 RMK AO2 RAB0756E23 SLP138 P0000 60000 T02130213 56005
KGLW 
31nm SE 
260915Z AUTO 00000KT 10SM BKN026 20/20 A2996 RMK AO2 T02000195
KBWG 
34nm S 
260853Z AUTO 16005KT 10SM -RA OVC014 23/20 A2994 RMK AO2 RAB17E26B41 SLP134 P0000 60001 T02280200 55000
KBRY 
38nm NE 
260915Z AUTO 00000KT 10SM BKN010 OVC016 20/20 A2995 RMK AO1
TAF
KFTK 
25nm NE 
260804Z 2608/2707 16009KT 8000 -SHRA BKN009 OVC015 QNH2994INS BECMG 2618/2619 18009KT 9999 NSW SCT015 OVC020 QNH2993INS BECMG 2623/2624 20006KT 8000 BR SCT010 OVC020 QNH2994INS TX23/2620Z TN20/2609Z
NOTAMs
Click for the latest NOTAMs
NOTAMs are issued by the DoD/FAA and will open in a separate window not controlled by AirNav.

 

 
 

Would you like to see your business listed on this page?

 If your business provides an interesting product or service to pilots, flight crews, aircraft, or users of the Mc Grew Airport, you should consider listing it here.  To start the listing process, click on the button below
 
Add a business
 

Other Pages about Mc Grew Airport

Update a link
 
Copyright © AirNav, LLC. All rights reserved. Privacy Policy  Contact